sensor_id;sensor_type;location;lat;lon;timestamp;P1;durP1;ratioP1;P2;durP2;ratioP2
58260;SDS011;44058;52.898;6.502;2022-08-19T00:00:25;5.93;;;5.43;;
58260;SDS011;44058;52.898;6.502;2022-08-19T00:02:52;5.50;;;5.00;;
58260;SDS011;44058;52.898;6.502;2022-08-19T00:05:18;5.05;;;4.60;;
58260;SDS011;44058;52.898;6.502;2022-08-19T00:07:45;5.85;;;5.35;;
58260;SDS011;44058;52.898;6.502;2022-08-19T00:10:12;5.57;;;4.35;;
58260;SDS011;44058;52.898;6.502;2022-08-19T00:12:39;5.05;;;4.50;;
58260;SDS011;44058;52.898;6.502;2022-08-19T00:15:07;5.63;;;4.95;;
58260;SDS011;44058;52.898;6.502;2022-08-19T00:17:46;7.43;;;5.78;;
58260;SDS011;44058;52.898;6.502;2022-08-19T00:20:15;6.57;;;6.05;;
58260;SDS011;44058;52.898;6.502;2022-08-19T00:22:44;6.50;;;5.85;;
58260;SDS011;44058;52.898;6.502;2022-08-19T00:25:11;7.03;;;5.95;;
58260;SDS011;44058;52.898;6.502;2022-08-19T00:27:37;5.90;;;5.40;;
58260;SDS011;44058;52.898;6.502;2022-08-19T00:30:04;6.63;;;5.90;;
58260;SDS011;44058;52.898;6.502;2022-08-19T00:32:32;7.40;;;6.03;;
58260;SDS011;44058;52.898;6.502;2022-08-19T00:34:59;6.47;;;5.82;;
58260;SDS011;44058;52.898;6.502;2022-08-19T00:37:29;6.10;;;5.32;;
58260;SDS011;44058;52.898;6.502;2022-08-19T00:39:55;6.05;;;5.45;;
58260;SDS011;44058;52.898;6.502;2022-08-19T00:42:22;6.13;;;5.57;;
58260;SDS011;44058;52.898;6.502;2022-08-19T00:44:48;7.10;;;5.50;;
58260;SDS011;44058;52.898;6.502;2022-08-19T00:47:15;6.32;;;5.78;;
58260;SDS011;44058;52.898;6.502;2022-08-19T00:49:43;6.32;;;5.72;;
58260;SDS011;44058;52.898;6.502;2022-08-19T00:52:18;6.05;;;5.45;;
58260;SDS011;44058;52.898;6.502;2022-08-19T00:54:51;5.80;;;5.32;;
58260;SDS011;44058;52.898;6.502;2022-08-19T00:57:18;5.40;;;4.88;;
58260;SDS011;44058;52.898;6.502;2022-08-19T00:59:48;8.35;;;6.32;;
58260;SDS011;44058;52.898;6.502;2022-08-19T01:02:17;5.78;;;5.28;;
58260;SDS011;44058;52.898;6.502;2022-08-19T01:04:43;6.78;;;5.43;;
58260;SDS011;44058;52.898;6.502;2022-08-19T01:07:09;5.75;;;5.25;;
58260;SDS011;44058;52.898;6.502;2022-08-19T01:09:35;7.03;;;5.93;;
58260;SDS011;44058;52.898;6.502;2022-08-19T01:12:01;5.65;;;4.80;;
58260;SDS011;44058;52.898;6.502;2022-08-19T01:14:27;6.82;;;5.68;;
58260;SDS011;44058;52.898;6.502;2022-08-19T01:16:53;6.88;;;6.18;;
58260;SDS011;44058;52.898;6.502;2022-08-19T01:19:27;4.50;;;4.10;;
58260;SDS011;44058;52.898;6.502;2022-08-19T01:21:58;5.30;;;4.68;;
58260;SDS011;44058;52.898;6.502;2022-08-19T01:24:29;7.10;;;6.40;;
58260;SDS011;44058;52.898;6.502;2022-08-19T01:26:55;7.50;;;6.72;;
58260;SDS011;44058;52.898;6.502;2022-08-19T01:29:22;8.07;;;7.28;;
58260;SDS011;44058;52.898;6.502;2022-08-19T01:31:48;8.60;;;6.10;;
58260;SDS011;44058;52.898;6.502;2022-08-19T01:34:14;6.15;;;5.55;;
58260;SDS011;44058;52.898;6.502;2022-08-19T01:36:41;6.55;;;5.70;;
58260;SDS011;44058;52.898;6.502;2022-08-19T01:39:11;5.88;;;5.38;;
58260;SDS011;44058;52.898;6.502;2022-08-19T01:41:44;4.63;;;4.22;;
58260;SDS011;44058;52.898;6.502;2022-08-19T01:44:10;5.15;;;4.65;;
58260;SDS011;44058;52.898;6.502;2022-08-19T01:46:36;3.97;;;3.67;;
58260;SDS011;44058;52.898;6.502;2022-08-19T01:49:04;4.75;;;4.45;;
58260;SDS011;44058;52.898;6.502;2022-08-19T01:51:31;4.95;;;4.55;;
58260;SDS011;44058;52.898;6.502;2022-08-19T01:53:57;5.35;;;4.90;;
58260;SDS011;44058;52.898;6.502;2022-08-19T01:56:24;6.20;;;5.70;;
58260;SDS011;44058;52.898;6.502;2022-08-19T01:58:55;9.90;;;8.88;;
58260;SDS011;44058;52.898;6.502;2022-08-19T02:01:26;8.57;;;7.53;;
58260;SDS011;44058;52.898;6.502;2022-08-19T02:03:52;8.20;;;7.50;;
58260;SDS011;44058;52.898;6.502;2022-08-19T02:06:19;8.18;;;7.38;;
58260;SDS011;44058;52.898;6.502;2022-08-19T02:08:45;8.38;;;6.90;;
58260;SDS011;44058;52.898;6.502;2022-08-19T02:11:17;7.90;;;7.30;;
58260;SDS011;44058;52.898;6.502;2022-08-19T02:13:46;7.32;;;6.63;;
58260;SDS011;44058;52.898;6.502;2022-08-19T02:16:12;6.60;;;6.00;;
58260;SDS011;44058;52.898;6.502;2022-08-19T02:18:37;6.60;;;5.95;;
58260;SDS011;44058;52.898;6.502;2022-08-19T02:21:03;5.05;;;4.65;;
58260;SDS011;44058;52.898;6.502;2022-08-19T02:23:29;6.82;;;6.22;;
58260;SDS011;44058;52.898;6.502;2022-08-19T02:25:57;6.68;;;6.00;;
58260;SDS011;44058;52.898;6.502;2022-08-19T02:28:23;9.07;;;8.23;;
58260;SDS011;44058;52.898;6.502;2022-08-19T02:30:49;6.80;;;6.13;;
58260;SDS011;44058;52.898;6.502;2022-08-19T02:33:15;7.55;;;6.40;;
58260;SDS011;44058;52.898;6.502;2022-08-19T02:35:41;5.32;;;4.93;;
58260;SDS011;44058;52.898;6.502;2022-08-19T02:38:08;5.20;;;4.77;;
58260;SDS011;44058;52.898;6.502;2022-08-19T02:40:53;5.30;;;4.90;;
58260;SDS011;44058;52.898;6.502;2022-08-19T02:43:25;6.00;;;5.50;;
58260;SDS011;44058;52.898;6.502;2022-08-19T02:45:53;5.33;;;4.83;;
58260;SDS011;44058;52.898;6.502;2022-08-19T02:48:20;5.43;;;4.93;;
58260;SDS011;44058;52.898;6.502;2022-08-19T02:53:23;4.43;;;4.13;;
58260;SDS011;44058;52.898;6.502;2022-08-19T02:55:51;5.18;;;4.78;;
58260;SDS011;44058;52.898;6.502;2022-08-19T02:58:17;5.72;;;5.22;;
58260;SDS011;44058;52.898;6.502;2022-08-19T03:00:46;6.60;;;5.95;;
58260;SDS011;44058;52.898;6.502;2022-08-19T03:03:14;4.95;;;4.55;;
58260;SDS011;44058;52.898;6.502;2022-08-19T03:05:40;6.20;;;5.70;;
58260;SDS011;44058;52.898;6.502;2022-08-19T03:08:07;5.03;;;4.50;;
58260;SDS011;44058;52.898;6.502;2022-08-19T03:13:04;6.57;;;6.07;;
58260;SDS011;44058;52.898;6.502;2022-08-19T03:15:30;8.88;;;8.15;;
58260;SDS011;44058;52.898;6.502;2022-08-19T03:17:56;9.63;;;8.63;;
58260;SDS011;44058;52.898;6.502;2022-08-19T03:20:22;8.48;;;7.78;;
58260;SDS011;44058;52.898;6.502;2022-08-19T03:22:47;5.13;;;4.75;;
58260;SDS011;44058;52.898;6.502;2022-08-19T03:25:14;6.45;;;4.45;;
58260;SDS011;44058;52.898;6.502;2022-08-19T03:27:40;7.20;;;6.57;;
58260;SDS011;44058;52.898;6.502;2022-08-19T03:30:06;6.30;;;5.80;;
58260;SDS011;44058;52.898;6.502;2022-08-19T03:32:32;8.82;;;8.02;;
58260;SDS011;44058;52.898;6.502;2022-08-19T03:34:58;7.55;;;6.85;;
58260;SDS011;44058;52.898;6.502;2022-08-19T03:37:24;8.52;;;7.68;;
58260;SDS011;44058;52.898;6.502;2022-08-19T03:39:50;10.68;;;9.68;;
58260;SDS011;44058;52.898;6.502;2022-08-19T03:42:16;9.57;;;8.77;;
58260;SDS011;44058;52.898;6.502;2022-08-19T03:44:43;11.38;;;10.27;;
58260;SDS011;44058;52.898;6.502;2022-08-19T03:47:10;9.00;;;8.13;;
58260;SDS011;44058;52.898;6.502;2022-08-19T03:49:40;8.90;;;8.10;;
58260;SDS011;44058;52.898;6.502;2022-08-19T03:52:06;7.75;;;6.85;;
58260;SDS011;44058;52.898;6.502;2022-08-19T03:54:33;5.68;;;5.00;;
58260;SDS011;44058;52.898;6.502;2022-08-19T03:56:59;6.28;;;5.78;;
58260;SDS011;44058;52.898;6.502;2022-08-19T03:59:29;6.10;;;5.60;;
58260;SDS011;44058;52.898;6.502;2022-08-19T04:01:58;7.20;;;6.50;;
58260;SDS011;44058;52.898;6.502;2022-08-19T04:04:25;10.00;;;9.13;;
58260;SDS011;44058;52.898;6.502;2022-08-19T04:06:52;9.27;;;8.40;;
58260;SDS011;44058;52.898;6.502;2022-08-19T04:09:18;8.80;;;8.02;;
58260;SDS011;44058;52.898;6.502;2022-08-19T04:11:48;7.60;;;6.97;;
58260;SDS011;44058;52.898;6.502;2022-08-19T04:14:19;9.27;;;6.97;;
58260;SDS011;44058;52.898;6.502;2022-08-19T04:16:47;7.43;;;6.72;;
58260;SDS011;44058;52.898;6.502;2022-08-19T04:19:15;9.70;;;8.90;;
58260;SDS011;44058;52.898;6.502;2022-08-19T04:21:43;11.93;;;10.73;;
58260;SDS011;44058;52.898;6.502;2022-08-19T04:26:37;5.20;;;4.80;;
58260;SDS011;44058;52.898;6.502;2022-08-19T04:29:07;4.28;;;3.97;;
58260;SDS011;44058;52.898;6.502;2022-08-19T04:31:48;4.05;;;3.75;;
58260;SDS011;44058;52.898;6.502;2022-08-19T04:34:15;5.35;;;4.85;;
58260;SDS011;44058;52.898;6.502;2022-08-19T04:36:44;5.50;;;5.00;;
58260;SDS011;44058;52.898;6.502;2022-08-19T04:39:11;5.00;;;4.60;;
58260;SDS011;44058;52.898;6.502;2022-08-19T04:41:40;3.85;;;3.50;;
58260;SDS011;44058;52.898;6.502;2022-08-19T04:44:25;3.95;;;3.47;;
58260;SDS011;44058;52.898;6.502;2022-08-19T04:46:51;3.60;;;3.30;;
58260;SDS011;44058;52.898;6.502;2022-08-19T04:49:20;4.07;;;3.78;;
58260;SDS011;44058;52.898;6.502;2022-08-19T04:51:51;4.32;;;3.72;;
58260;SDS011;44058;52.898;6.502;2022-08-19T04:56:47;5.22;;;4.72;;
58260;SDS011;44058;52.898;6.502;2022-08-19T04:59:17;9.20;;;6.72;;
58260;SDS011;44058;52.898;6.502;2022-08-19T05:01:45;7.50;;;6.30;;
58260;SDS011;44058;52.898;6.502;2022-08-19T05:04:15;7.60;;;5.72;;
58260;SDS011;44058;52.898;6.502;2022-08-19T05:06:45;5.55;;;5.00;;
58260;SDS011;44058;52.898;6.502;2022-08-19T05:09:12;4.18;;;3.85;;
58260;SDS011;44058;52.898;6.502;2022-08-19T05:11:39;5.47;;;4.90;;
58260;SDS011;44058;52.898;6.502;2022-08-19T05:14:06;5.93;;;5.30;;
58260;SDS011;44058;52.898;6.502;2022-08-19T05:16:32;5.38;;;4.97;;
58260;SDS011;44058;52.898;6.502;2022-08-19T05:18:59;8.65;;;7.85;;
58260;SDS011;44058;52.898;6.502;2022-08-19T05:21:43;6.07;;;5.57;;
58260;SDS011;44058;52.898;6.502;2022-08-19T05:24:28;6.10;;;5.60;;
58260;SDS011;44058;52.898;6.502;2022-08-19T05:26:55;5.78;;;5.15;;
58260;SDS011;44058;52.898;6.502;2022-08-19T05:29:25;6.15;;;5.65;;
58260;SDS011;44058;52.898;6.502;2022-08-19T05:31:53;4.80;;;4.50;;
58260;SDS011;44058;52.898;6.502;2022-08-19T05:34:20;5.55;;;5.05;;
58260;SDS011;44058;52.898;6.502;2022-08-19T05:36:49;6.60;;;6.10;;
58260;SDS011;44058;52.898;6.502;2022-08-19T05:39:17;8.20;;;7.40;;
58260;SDS011;44058;52.898;6.502;2022-08-19T05:41:44;9.82;;;7.85;;
58260;SDS011;44058;52.898;6.502;2022-08-19T05:44:12;12.57;;;11.25;;
58260;SDS011;44058;52.898;6.502;2022-08-19T05:46:38;12.73;;;11.63;;
58260;SDS011;44058;52.898;6.502;2022-08-19T05:49:05;12.95;;;11.68;;
58260;SDS011;44058;52.898;6.502;2022-08-19T05:51:35;14.63;;;13.30;;
58260;SDS011;44058;52.898;6.502;2022-08-19T05:54:02;16.15;;;14.57;;
58260;SDS011;44058;52.898;6.502;2022-08-19T05:56:30;16.08;;;14.57;;
58260;SDS011;44058;52.898;6.502;2022-08-19T05:58:57;15.27;;;13.68;;
58260;SDS011;44058;52.898;6.502;2022-08-19T06:01:24;15.95;;;14.40;;
58260;SDS011;44058;52.898;6.502;2022-08-19T06:03:51;15.80;;;14.30;;
58260;SDS011;44058;52.898;6.502;2022-08-19T06:06:17;16.13;;;14.50;;
58260;SDS011;44058;52.898;6.502;2022-08-19T06:08:43;16.60;;;15.10;;
58260;SDS011;44058;52.898;6.502;2022-08-19T06:11:23;16.83;;;15.15;;
58260;SDS011;44058;52.898;6.502;2022-08-19T06:13:57;16.35;;;14.85;;
58260;SDS011;44058;52.898;6.502;2022-08-19T06:16:26;20.35;;;16.23;;
58260;SDS011;44058;52.898;6.502;2022-08-19T06:18:54;17.80;;;16.02;;
58260;SDS011;44058;52.898;6.502;2022-08-19T06:21:23;19.08;;;17.17;;
58260;SDS011;44058;52.898;6.502;2022-08-19T06:23:50;19.50;;;17.52;;
58260;SDS011;44058;52.898;6.502;2022-08-19T06:26:17;18.20;;;16.48;;
58260;SDS011;44058;52.898;6.502;2022-08-19T06:28:44;17.85;;;15.88;;
58260;SDS011;44058;52.898;6.502;2022-08-19T06:31:15;18.05;;;16.15;;
58260;SDS011;44058;52.898;6.502;2022-08-19T06:33:48;16.98;;;15.35;;
58260;SDS011;44058;52.898;6.502;2022-08-19T06:36:18;18.13;;;16.30;;
58260;SDS011;44058;52.898;6.502;2022-08-19T06:38:59;17.42;;;15.70;;
58260;SDS011;44058;52.898;6.502;2022-08-19T06:41:30;18.02;;;16.42;;
58260;SDS011;44058;52.898;6.502;2022-08-19T06:43:59;16.65;;;14.95;;
58260;SDS011;44058;52.898;6.502;2022-08-19T06:46:25;16.75;;;15.25;;
58260;SDS011;44058;52.898;6.502;2022-08-19T06:48:51;17.33;;;15.52;;
58260;SDS011;44058;52.898;6.502;2022-08-19T06:51:18;18.02;;;16.23;;
58260;SDS011;44058;52.898;6.502;2022-08-19T06:53:47;18.02;;;16.13;;
58260;SDS011;44058;52.898;6.502;2022-08-19T06:56:15;17.13;;;15.43;;
58260;SDS011;44058;52.898;6.502;2022-08-19T06:58:42;18.23;;;16.50;;
58260;SDS011;44058;52.898;6.502;2022-08-19T07:01:08;18.10;;;16.27;;
58260;SDS011;44058;52.898;6.502;2022-08-19T07:03:36;18.65;;;16.42;;
58260;SDS011;44058;52.898;6.502;2022-08-19T07:06:06;17.67;;;15.98;;
58260;SDS011;44058;52.898;6.502;2022-08-19T07:08:38;17.73;;;15.57;;
58260;SDS011;44058;52.898;6.502;2022-08-19T07:11:06;18.15;;;16.40;;
58260;SDS011;44058;52.898;6.502;2022-08-19T07:13:35;16.83;;;15.23;;
58260;SDS011;44058;52.898;6.502;2022-08-19T07:16:09;16.08;;;14.68;;
58260;SDS011;44058;52.898;6.502;2022-08-19T07:18:37;16.65;;;15.15;;
58260;SDS011;44058;52.898;6.502;2022-08-19T07:21:07;17.40;;;15.80;;
58260;SDS011;44058;52.898;6.502;2022-08-19T07:23:41;17.65;;;15.95;;
58260;SDS011;44058;52.898;6.502;2022-08-19T07:26:09;15.85;;;14.38;;
58260;SDS011;44058;52.898;6.502;2022-08-19T07:28:46;15.30;;;13.77;;
58260;SDS011;44058;52.898;6.502;2022-08-19T07:31:13;16.25;;;14.75;;
58260;SDS011;44058;52.898;6.502;2022-08-19T07:33:44;16.35;;;14.85;;
58260;SDS011;44058;52.898;6.502;2022-08-19T07:36:12;16.40;;;15.00;;
58260;SDS011;44058;52.898;6.502;2022-08-19T07:38:40;16.52;;;14.95;;
58260;SDS011;44058;52.898;6.502;2022-08-19T07:41:11;16.73;;;15.23;;
58260;SDS011;44058;52.898;6.502;2022-08-19T07:43:39;16.55;;;14.98;;
58260;SDS011;44058;52.898;6.502;2022-08-19T07:46:06;17.30;;;15.25;;
58260;SDS011;44058;52.898;6.502;2022-08-19T07:48:32;15.02;;;13.52;;
58260;SDS011;44058;52.898;6.502;2022-08-19T07:50:59;15.10;;;13.68;;
58260;SDS011;44058;52.898;6.502;2022-08-19T07:53:27;16.02;;;14.15;;
58260;SDS011;44058;52.898;6.502;2022-08-19T07:55:54;13.95;;;12.52;;
58260;SDS011;44058;52.898;6.502;2022-08-19T07:58:20;14.60;;;13.20;;
58260;SDS011;44058;52.898;6.502;2022-08-19T08:00:48;13.32;;;12.02;;
58260;SDS011;44058;52.898;6.502;2022-08-19T08:03:16;12.88;;;11.65;;
58260;SDS011;44058;52.898;6.502;2022-08-19T08:05:46;12.65;;;11.40;;
58260;SDS011;44058;52.898;6.502;2022-08-19T08:08:30;12.65;;;11.45;;
58260;SDS011;44058;52.898;6.502;2022-08-19T08:10:56;12.45;;;11.15;;
58260;SDS011;44058;52.898;6.502;2022-08-19T08:13:23;11.95;;;10.73;;
58260;SDS011;44058;52.898;6.502;2022-08-19T08:15:49;12.73;;;11.52;;
58260;SDS011;44058;52.898;6.502;2022-08-19T08:18:15;11.95;;;10.85;;
58260;SDS011;44058;52.898;6.502;2022-08-19T08:20:41;11.98;;;10.77;;
58260;SDS011;44058;52.898;6.502;2022-08-19T08:23:07;13.60;;;11.60;;
58260;SDS011;44058;52.898;6.502;2022-08-19T08:25:50;16.13;;;14.45;;
58260;SDS011;44058;52.898;6.502;2022-08-19T08:28:18;16.40;;;14.70;;
58260;SDS011;44058;52.898;6.502;2022-08-19T08:30:45;17.65;;;15.90;;
58260;SDS011;44058;52.898;6.502;2022-08-19T08:33:13;17.23;;;15.57;;
58260;SDS011;44058;52.898;6.502;2022-08-19T08:35:42;17.45;;;15.82;;
58260;SDS011;44058;52.898;6.502;2022-08-19T08:38:08;17.90;;;16.10;;
58260;SDS011;44058;52.898;6.502;2022-08-19T08:40:48;19.10;;;16.63;;
58260;SDS011;44058;52.898;6.502;2022-08-19T08:43:23;19.02;;;17.23;;
58260;SDS011;44058;52.898;6.502;2022-08-19T08:46:00;18.08;;;16.17;;
58260;SDS011;44058;52.898;6.502;2022-08-19T08:51:03;18.70;;;16.88;;
58260;SDS011;44058;52.898;6.502;2022-08-19T08:53:34;18.40;;;16.60;;
58260;SDS011;44058;52.898;6.502;2022-08-19T08:56:02;18.58;;;16.92;;
58260;SDS011;44058;52.898;6.502;2022-08-19T08:58:42;18.92;;;17.13;;
58260;SDS011;44058;52.898;6.502;2022-08-19T09:01:19;18.42;;;16.73;;
58260;SDS011;44058;52.898;6.502;2022-08-19T09:03:45;18.33;;;16.55;;
58260;SDS011;44058;52.898;6.502;2022-08-19T09:06:18;18.70;;;16.88;;
58260;SDS011;44058;52.898;6.502;2022-08-19T09:11:41;17.88;;;16.08;;
58260;SDS011;44058;52.898;6.502;2022-08-19T09:14:31;18.48;;;16.60;;
58260;SDS011;44058;52.898;6.502;2022-08-19T09:17:02;18.33;;;16.70;;
58260;SDS011;44058;52.898;6.502;2022-08-19T09:19:28;18.67;;;16.92;;
58260;SDS011;44058;52.898;6.502;2022-08-19T09:21:55;19.05;;;17.25;;
58260;SDS011;44058;52.898;6.502;2022-08-19T09:24:21;17.15;;;15.55;;
58260;SDS011;44058;52.898;6.502;2022-08-19T09:26:47;16.60;;;15.10;;
58260;SDS011;44058;52.898;6.502;2022-08-19T09:29:13;16.35;;;14.85;;
58260;SDS011;44058;52.898;6.502;2022-08-19T09:31:39;16.40;;;14.65;;
58260;SDS011;44058;52.898;6.502;2022-08-19T09:34:05;15.50;;;14.10;;
58260;SDS011;44058;52.898;6.502;2022-08-19T09:36:31;14.98;;;13.52;;
58260;SDS011;44058;52.898;6.502;2022-08-19T09:38:58;15.75;;;13.98;;
58260;SDS011;44058;52.898;6.502;2022-08-19T09:41:25;14.38;;;13.18;;
58260;SDS011;44058;52.898;6.502;2022-08-19T09:43:53;15.30;;;13.82;;
58260;SDS011;44058;52.898;6.502;2022-08-19T09:46:23;15.73;;;14.13;;
58260;SDS011;44058;52.898;6.502;2022-08-19T09:48:51;16.52;;;14.93;;
58260;SDS011;44058;52.898;6.502;2022-08-19T09:51:22;15.23;;;13.93;;
58260;SDS011;44058;52.898;6.502;2022-08-19T09:53:53;16.65;;;15.05;;
58260;SDS011;44058;52.898;6.502;2022-08-19T09:56:23;16.45;;;14.95;;
58260;SDS011;44058;52.898;6.502;2022-08-19T09:58:49;15.70;;;14.15;;
58260;SDS011;44058;52.898;6.502;2022-08-19T10:01:17;15.35;;;13.95;;
58260;SDS011;44058;52.898;6.502;2022-08-19T10:03:49;16.40;;;15.00;;
58260;SDS011;44058;52.898;6.502;2022-08-19T10:06:18;14.43;;;13.13;;
58260;SDS011;44058;52.898;6.502;2022-08-19T10:08:49;13.20;;;12.00;;
58260;SDS011;44058;52.898;6.502;2022-08-19T10:11:17;14.38;;;13.07;;
58260;SDS011;44058;52.898;6.502;2022-08-19T10:13:43;12.48;;;11.38;;
58260;SDS011;44058;52.898;6.502;2022-08-19T10:16:14;13.10;;;11.80;;
58260;SDS011;44058;52.898;6.502;2022-08-19T10:18:43;14.38;;;12.93;;
58260;SDS011;44058;52.898;6.502;2022-08-19T10:21:12;13.63;;;12.43;;
58260;SDS011;44058;52.898;6.502;2022-08-19T10:23:42;13.57;;;12.18;;
58260;SDS011;44058;52.898;6.502;2022-08-19T10:26:11;12.77;;;11.65;;
58260;SDS011;44058;52.898;6.502;2022-08-19T10:28:39;16.13;;;14.63;;
58260;SDS011;44058;52.898;6.502;2022-08-19T10:31:09;13.70;;;12.30;;
58260;SDS011;44058;52.898;6.502;2022-08-19T10:33:40;13.90;;;12.57;;
58260;SDS011;44058;52.898;6.502;2022-08-19T10:36:08;13.80;;;12.57;;
58260;SDS011;44058;52.898;6.502;2022-08-19T10:38:37;13.02;;;11.75;;
58260;SDS011;44058;52.898;6.502;2022-08-19T10:41:22;11.93;;;10.90;;
58260;SDS011;44058;52.898;6.502;2022-08-19T10:44:00;11.27;;;10.05;;
58260;SDS011;44058;52.898;6.502;2022-08-19T10:48:56;10.65;;;9.65;;
58260;SDS011;44058;52.898;6.502;2022-08-19T10:51:22;10.90;;;10.00;;
58260;SDS011;44058;52.898;6.502;2022-08-19T10:54:06;13.57;;;12.27;;
58260;SDS011;44058;52.898;6.502;2022-08-19T10:56:32;13.10;;;11.88;;
58260;SDS011;44058;52.898;6.502;2022-08-19T10:59:17;14.00;;;12.73;;
58260;SDS011;44058;52.898;6.502;2022-08-19T11:01:45;13.52;;;12.13;;
58260;SDS011;44058;52.898;6.502;2022-08-19T11:04:11;12.85;;;11.60;;
58260;SDS011;44058;52.898;6.502;2022-08-19T11:06:41;11.50;;;10.30;;
58260;SDS011;44058;52.898;6.502;2022-08-19T11:09:08;8.80;;;7.93;;
58260;SDS011;44058;52.898;6.502;2022-08-19T11:11:36;10.52;;;9.45;;
58260;SDS011;44058;52.898;6.502;2022-08-19T11:14:10;11.52;;;10.43;;
58260;SDS011;44058;52.898;6.502;2022-08-19T11:16:37;12.73;;;11.60;;
58260;SDS011;44058;52.898;6.502;2022-08-19T11:19:04;12.65;;;11.35;;
58260;SDS011;44058;52.898;6.502;2022-08-19T11:21:32;14.27;;;12.13;;
58260;SDS011;44058;52.898;6.502;2022-08-19T11:24:02;12.63;;;11.43;;
58260;SDS011;44058;52.898;6.502;2022-08-19T11:26:30;14.00;;;12.73;;
58260;SDS011;44058;52.898;6.502;2022-08-19T11:28:58;14.57;;;13.20;;
58260;SDS011;44058;52.898;6.502;2022-08-19T11:31:26;14.98;;;13.57;;
58260;SDS011;44058;52.898;6.502;2022-08-19T11:34:00;12.95;;;11.80;;
58260;SDS011;44058;52.898;6.502;2022-08-19T11:36:28;15.98;;;14.45;;
58260;SDS011;44058;52.898;6.502;2022-08-19T11:38:55;13.00;;;11.70;;
58260;SDS011;44058;52.898;6.502;2022-08-19T11:41:22;12.15;;;11.02;;
58260;SDS011;44058;52.898;6.502;2022-08-19T11:43:49;10.77;;;9.68;;
58260;SDS011;44058;52.898;6.502;2022-08-19T11:46:18;11.13;;;10.02;;
58260;SDS011;44058;52.898;6.502;2022-08-19T11:48:44;9.75;;;8.85;;
58260;SDS011;44058;52.898;6.502;2022-08-19T11:51:19;6.55;;;5.90;;
58260;SDS011;44058;52.898;6.502;2022-08-19T11:53:47;7.05;;;6.38;;
58260;SDS011;44058;52.898;6.502;2022-08-19T11:56:15;7.60;;;6.90;;
58260;SDS011;44058;52.898;6.502;2022-08-19T11:58:42;10.00;;;9.05;;
58260;SDS011;44058;52.898;6.502;2022-08-19T12:01:13;7.70;;;7.03;;
58260;SDS011;44058;52.898;6.502;2022-08-19T12:03:42;8.45;;;7.65;;
58260;SDS011;44058;52.898;6.502;2022-08-19T12:06:11;9.63;;;8.73;;
58260;SDS011;44058;52.898;6.502;2022-08-19T12:08:41;8.13;;;7.32;;
58260;SDS011;44058;52.898;6.502;2022-08-19T12:11:08;10.60;;;9.40;;
58260;SDS011;44058;52.898;6.502;2022-08-19T12:13:35;8.23;;;7.53;;
58260;SDS011;44058;52.898;6.502;2022-08-19T12:16:08;6.05;;;5.40;;
58260;SDS011;44058;52.898;6.502;2022-08-19T12:18:38;6.38;;;5.40;;
58260;SDS011;44058;52.898;6.502;2022-08-19T12:21:04;7.60;;;6.82;;
58260;SDS011;44058;52.898;6.502;2022-08-19T12:23:30;7.85;;;6.50;;
58260;SDS011;44058;52.898;6.502;2022-08-19T12:25:55;6.72;;;6.05;;
58260;SDS011;44058;52.898;6.502;2022-08-19T12:28:22;4.65;;;4.25;;
58260;SDS011;44058;52.898;6.502;2022-08-19T12:30:49;6.22;;;5.70;;
58260;SDS011;44058;52.898;6.502;2022-08-19T12:33:18;7.75;;;6.93;;
58260;SDS011;44058;52.898;6.502;2022-08-19T12:35:45;10.20;;;7.90;;
58260;SDS011;44058;52.898;6.502;2022-08-19T12:38:13;9.93;;;8.93;;
58260;SDS011;44058;52.898;6.502;2022-08-19T12:40:40;10.05;;;8.85;;
58260;SDS011;44058;52.898;6.502;2022-08-19T12:43:06;10.68;;;9.63;;
58260;SDS011;44058;52.898;6.502;2022-08-19T12:45:35;8.88;;;8.05;;
58260;SDS011;44058;52.898;6.502;2022-08-19T12:48:01;9.70;;;8.88;;
58260;SDS011;44058;52.898;6.502;2022-08-19T12:50:28;10.18;;;9.27;;
58260;SDS011;44058;52.898;6.502;2022-08-19T12:52:54;11.18;;;10.07;;
58260;SDS011;44058;52.898;6.502;2022-08-19T12:55:21;10.43;;;9.50;;
58260;SDS011;44058;52.898;6.502;2022-08-19T12:57:46;10.40;;;9.50;;
58260;SDS011;44058;52.898;6.502;2022-08-19T13:00:16;7.47;;;6.65;;
58260;SDS011;44058;52.898;6.502;2022-08-19T13:02:48;7.80;;;7.00;;
58260;SDS011;44058;52.898;6.502;2022-08-19T13:05:17;7.13;;;6.40;;
58260;SDS011;44058;52.898;6.502;2022-08-19T13:07:48;12.13;;;9.52;;
58260;SDS011;44058;52.898;6.502;2022-08-19T13:10:16;9.32;;;8.35;;
58260;SDS011;44058;52.898;6.502;2022-08-19T13:12:44;10.77;;;9.75;;
58260;SDS011;44058;52.898;6.502;2022-08-19T13:15:11;10.53;;;9.53;;
58260;SDS011;44058;52.898;6.502;2022-08-19T13:17:37;9.20;;;8.30;;
58260;SDS011;44058;52.898;6.502;2022-08-19T13:20:04;8.20;;;7.40;;
58260;SDS011;44058;52.898;6.502;2022-08-19T13:22:32;7.82;;;7.07;;
58260;SDS011;44058;52.898;6.502;2022-08-19T13:25:00;9.00;;;7.57;;
58260;SDS011;44058;52.898;6.502;2022-08-19T13:27:28;11.27;;;10.15;;
58260;SDS011;44058;52.898;6.502;2022-08-19T13:29:54;13.02;;;11.82;;
58260;SDS011;44058;52.898;6.502;2022-08-19T13:32:39;15.57;;;14.07;;
58260;SDS011;44058;52.898;6.502;2022-08-19T13:35:23;14.73;;;13.23;;
58260;SDS011;44058;52.898;6.502;2022-08-19T13:37:49;14.07;;;12.70;;
58260;SDS011;44058;52.898;6.502;2022-08-19T13:40:16;14.48;;;12.95;;
58260;SDS011;44058;52.898;6.502;2022-08-19T13:42:46;15.02;;;13.70;;
58260;SDS011;44058;52.898;6.502;2022-08-19T13:45:15;16.83;;;14.82;;
58260;SDS011;44058;52.898;6.502;2022-08-19T13:47:45;19.85;;;13.60;;
58260;SDS011;44058;52.898;6.502;2022-08-19T13:50:12;17.50;;;14.30;;
58260;SDS011;44058;52.898;6.502;2022-08-19T13:52:40;12.45;;;11.15;;
58260;SDS011;44058;52.898;6.502;2022-08-19T13:55:07;16.65;;;12.88;;
58260;SDS011;44058;52.898;6.502;2022-08-19T13:57:34;16.88;;;15.18;;
58260;SDS011;44058;52.898;6.502;2022-08-19T14:00:01;15.38;;;13.80;;
58260;SDS011;44058;52.898;6.502;2022-08-19T14:02:29;16.95;;;15.18;;
58260;SDS011;44058;52.898;6.502;2022-08-19T14:04:54;17.00;;;15.40;;
58260;SDS011;44058;52.898;6.502;2022-08-19T14:07:20;16.85;;;14.82;;
58260;SDS011;44058;52.898;6.502;2022-08-19T14:09:49;19.23;;;17.30;;
58260;SDS011;44058;52.898;6.502;2022-08-19T14:12:18;18.25;;;16.35;;
58260;SDS011;44058;52.898;6.502;2022-08-19T14:14:45;19.55;;;17.50;;
58260;SDS011;44058;52.898;6.502;2022-08-19T14:17:11;20.40;;;18.25;;
58260;SDS011;44058;52.898;6.502;2022-08-19T14:19:37;19.40;;;17.45;;
58260;SDS011;44058;52.898;6.502;2022-08-19T14:22:02;21.95;;;19.75;;
58260;SDS011;44058;52.898;6.502;2022-08-19T14:24:29;21.63;;;19.13;;
58260;SDS011;44058;52.898;6.502;2022-08-19T14:26:55;23.13;;;18.85;;
58260;SDS011;44058;52.898;6.502;2022-08-19T14:29:23;20.33;;;17.98;;
58260;SDS011;44058;52.898;6.502;2022-08-19T14:31:49;20.13;;;17.98;;
58260;SDS011;44058;52.898;6.502;2022-08-19T14:34:14;19.85;;;17.83;;
58260;SDS011;44058;52.898;6.502;2022-08-19T14:36:40;19.75;;;17.70;;
58260;SDS011;44058;52.898;6.502;2022-08-19T14:39:06;18.67;;;16.95;;
58260;SDS011;44058;52.898;6.502;2022-08-19T14:41:32;20.08;;;18.08;;
58260;SDS011;44058;52.898;6.502;2022-08-19T14:43:59;19.13;;;17.08;;
58260;SDS011;44058;52.898;6.502;2022-08-19T14:46:27;18.25;;;16.38;;
58260;SDS011;44058;52.898;6.502;2022-08-19T14:48:54;18.40;;;16.35;;
58260;SDS011;44058;52.898;6.502;2022-08-19T14:51:21;17.90;;;16.00;;
58260;SDS011;44058;52.898;6.502;2022-08-19T14:53:48;17.15;;;15.30;;
58260;SDS011;44058;52.898;6.502;2022-08-19T14:56:17;18.67;;;15.32;;
58260;SDS011;44058;52.898;6.502;2022-08-19T14:58:46;17.77;;;15.90;;